createdAt,value
2022-12-16T00:01:29.524Z,-4.70
2022-12-16T00:04:00.270Z,-4.80
2022-12-16T00:06:34.033Z,-4.70
2022-12-16T00:09:04.313Z,-4.70
2022-12-16T00:11:33.618Z,-4.70
2022-12-16T00:14:03.607Z,-4.70
2022-12-16T00:16:34.474Z,-4.70
2022-12-16T00:19:05.008Z,-4.70
2022-12-16T00:21:34.617Z,-4.80
2022-12-16T00:24:04.348Z,-4.80
2022-12-16T00:26:33.772Z,-4.70
2022-12-16T00:29:05.691Z,-4.80
2022-12-16T00:31:36.532Z,-4.60
2022-12-16T00:34:06.507Z,-4.60
2022-12-16T00:36:36.109Z,-4.60
2022-12-16T00:39:05.860Z,-4.60
2022-12-16T00:41:35.504Z,-4.70
2022-12-16T00:44:05.757Z,-4.70
2022-12-16T00:46:36.588Z,-4.70
2022-12-16T00:49:06.396Z,-4.70
2022-12-16T00:51:35.740Z,-4.80
2022-12-16T00:54:05.565Z,-4.80
2022-12-16T00:56:35.232Z,-4.80
2022-12-16T00:59:05.085Z,-4.80
2022-12-16T01:01:36.345Z,-4.80
2022-12-16T01:04:07.161Z,-4.80
2022-12-16T01:06:36.405Z,-4.80
2022-12-16T01:09:06.173Z,-4.70
2022-12-16T01:11:35.464Z,-4.80
2022-12-16T01:14:06.473Z,-4.80
2022-12-16T01:16:37.278Z,-4.90
2022-12-16T01:19:07.160Z,-4.90
2022-12-16T01:21:36.492Z,-4.90
2022-12-16T01:24:07.169Z,-4.90
2022-12-16T01:26:36.422Z,-4.90
2022-12-16T01:29:06.514Z,-4.70
2022-12-16T01:31:38.514Z,-4.80
2022-12-16T01:34:08.663Z,-4.80
2022-12-16T01:36:37.910Z,-4.80
2022-12-16T01:39:07.554Z,-4.80
2022-12-16T01:41:36.964Z,-4.80
2022-12-16T01:44:17.333Z,-4.80
2022-12-16T01:46:52.791Z,-4.80
2022-12-16T01:49:30.385Z,-4.80
2022-12-16T01:52:03.872Z,-4.70
2022-12-16T01:54:37.285Z,-4.70
2022-12-16T01:57:11.799Z,-4.70
2022-12-16T01:59:45.191Z,-4.70
2022-12-16T02:02:16.605Z,-4.70
2022-12-16T02:05:06.787Z,-4.80
2022-12-16T02:07:36.203Z,-4.80
2022-12-16T02:10:06.476Z,-4.90
2022-12-16T02:12:46.624Z,-4.90
2022-12-16T02:15:31.010Z,-4.80
2022-12-16T02:18:10.378Z,-4.90
2022-12-16T02:21:15.807Z,-4.80
2022-12-16T02:24:17.409Z,-4.80
2022-12-16T02:27:21.795Z,-4.70
2022-12-16T02:30:25.204Z,-4.80
2022-12-16T02:33:05.105Z,-4.80
2022-12-16T02:35:41.784Z,-4.70
2022-12-16T02:38:23.788Z,-4.70
2022-12-16T02:40:57.041Z,-4.70
2022-12-16T02:43:42.392Z,-4.70
2022-12-16T02:46:13.633Z,-4.70
2022-12-16T02:48:43.312Z,-4.70
2022-12-16T02:51:13.151Z,-4.80
2022-12-16T02:53:45.216Z,-4.70
2022-12-16T02:56:26.620Z,-4.70
2022-12-16T02:59:09.313Z,-4.60
2022-12-16T03:01:50.331Z,-4.70
2022-12-16T03:04:24.253Z,-4.70
2022-12-16T03:06:56.197Z,-4.80
2022-12-16T03:09:30.504Z,-4.80
2022-12-16T03:12:01.404Z,-4.90
2022-12-16T03:14:35.661Z,-4.90
2022-12-16T03:17:07.631Z,-4.90
2022-12-16T03:19:39.810Z,-4.70
2022-12-16T03:22:13.423Z,-4.70
2022-12-16T03:24:44.189Z,-4.70
2022-12-16T03:27:20.195Z,-4.80
2022-12-16T03:29:56.372Z,-4.70
2022-12-16T03:32:34.507Z,-4.80
2022-12-16T03:35:14.564Z,-4.80
2022-12-16T03:37:46.793Z,-4.80
2022-12-16T03:40:17.061Z,-4.90
2022-12-16T03:42:46.981Z,-4.80
2022-12-16T03:45:22.507Z,-4.80
2022-12-16T03:47:54.759Z,-4.90
2022-12-16T03:50:28.685Z,-4.90
2022-12-16T03:52:58.722Z,-4.90
2022-12-16T03:55:29.212Z,-5.00
2022-12-16T03:57:59.119Z,-5.10
2022-12-16T04:00:28.891Z,-5.00
2022-12-16T04:02:59.892Z,-5.00
2022-12-16T04:05:30.111Z,-5.10
2022-12-16T04:08:02.245Z,-5.10
2022-12-16T04:10:49.681Z,-5.00
2022-12-16T04:13:36.391Z,-4.90
2022-12-16T04:16:24.312Z,-5.00
2022-12-16T04:19:12.337Z,-5.00
2022-12-16T04:21:59.353Z,-5.10
2022-12-16T04:24:30.863Z,-5.10
2022-12-16T04:27:18.254Z,-5.10
2022-12-16T04:30:16.371Z,-5.10
2022-12-16T04:33:04.084Z,-5.10
2022-12-16T04:35:51.925Z,-5.10
2022-12-16T04:38:38.999Z,-5.10
2022-12-16T04:41:25.836Z,-5.10
2022-12-16T04:44:12.825Z,-5.00
2022-12-16T04:46:59.648Z,-5.00
2022-12-16T04:49:46.271Z,-5.00
2022-12-16T04:52:35.296Z,-5.10
2022-12-16T04:55:24.153Z,-5.10
2022-12-16T04:58:11.943Z,-5.10
2022-12-16T05:00:59.967Z,-5.00
2022-12-16T05:03:47.488Z,-5.00
2022-12-16T05:06:34.997Z,-5.00
2022-12-16T05:09:24.552Z,-5.00
2022-12-16T05:12:11.968Z,-5.10
2022-12-16T05:14:58.458Z,-5.10
2022-12-16T05:17:45.751Z,-5.20
2022-12-16T05:20:32.521Z,-5.20
2022-12-16T05:23:19.469Z,-5.20
2022-12-16T05:26:07.524Z,-5.30
2022-12-16T05:28:55.117Z,-5.20
2022-12-16T05:31:41.490Z,-5.20
2022-12-16T05:34:28.593Z,-5.20
2022-12-16T05:37:14.888Z,-5.20
2022-12-16T05:40:01.462Z,-5.10
2022-12-16T05:42:49.481Z,-5.10
2022-12-16T05:45:36.576Z,-5.10
2022-12-16T05:48:22.796Z,-5.10
2022-12-16T05:51:10.222Z,-5.20
2022-12-16T05:53:56.626Z,-5.10
2022-12-16T05:56:43.302Z,-5.20
2022-12-16T05:59:31.356Z,-5.20
2022-12-16T06:02:23.633Z,-5.20
2022-12-16T06:05:10.436Z,-5.30
2022-12-16T06:07:57.329Z,-5.20
2022-12-16T06:10:43.592Z,-5.20
2022-12-16T06:13:31.126Z,-5.20
2022-12-16T06:16:19.658Z,-5.10
2022-12-16T06:19:06.729Z,-5.10
2022-12-16T06:21:53.321Z,-5.10
2022-12-16T06:24:40.252Z,-5.10
2022-12-16T06:27:26.961Z,-5.10
2022-12-16T06:30:14.404Z,-5.10
2022-12-16T06:33:03.705Z,-5.00
2022-12-16T06:35:50.760Z,-5.00
2022-12-16T06:38:37.164Z,-4.90
2022-12-16T06:41:24.169Z,-4.90
2022-12-16T06:44:10.749Z,-5.00
2022-12-16T06:47:03.199Z,-5.00
2022-12-16T06:49:51.254Z,-5.00
2022-12-16T06:52:38.156Z,-5.00
2022-12-16T06:55:25.165Z,-5.00
2022-12-16T06:58:16.896Z,-5.00
2022-12-16T07:01:03.381Z,-5.00
2022-12-16T07:03:50.612Z,-5.00
2022-12-16T07:06:38.800Z,-5.00
2022-12-16T07:09:25.997Z,-5.00
2022-12-16T07:12:12.260Z,-5.00
2022-12-16T07:14:59.348Z,-5.00
2022-12-16T07:17:45.946Z,-4.90
2022-12-16T07:20:33.397Z,-4.80
2022-12-16T07:23:21.595Z,-4.80
2022-12-16T07:26:09.071Z,-4.80
2022-12-16T07:28:55.393Z,-4.80
2022-12-16T07:31:42.417Z,-4.80
2022-12-16T07:34:29.153Z,-4.80
2022-12-16T07:37:16.159Z,-4.80
2022-12-16T07:40:04.156Z,-4.80
2022-12-16T07:43:06.080Z,-4.90
2022-12-16T07:45:53.158Z,-4.90
2022-12-16T07:48:40.800Z,-4.90
2022-12-16T07:51:27.593Z,-4.80
2022-12-16T07:54:14.689Z,-4.80
2022-12-16T07:57:02.574Z,-4.70
2022-12-16T07:59:49.731Z,-4.80
2022-12-16T08:02:32.850Z,-4.70
2022-12-16T08:05:20.085Z,-4.70
2022-12-16T08:08:06.435Z,-4.70
2022-12-16T08:10:53.443Z,-4.70
2022-12-16T08:13:44.533Z,-4.70
2022-12-16T08:16:31.491Z,-4.60
2022-12-16T08:19:18.167Z,-4.60
2022-12-16T08:22:05.164Z,-4.60
2022-12-16T08:24:53.700Z,-4.60
2022-12-16T08:27:57.456Z,-4.70
2022-12-16T08:30:45.699Z,-4.70
2022-12-16T08:33:33.197Z,-4.70
2022-12-16T08:36:19.889Z,-4.70
2022-12-16T08:39:06.910Z,-4.70
2022-12-16T08:41:53.337Z,-4.60
2022-12-16T08:44:40.738Z,-4.60
2022-12-16T08:47:29.224Z,-4.60
2022-12-16T08:50:15.925Z,-4.70
2022-12-16T08:53:02.276Z,-4.60
2022-12-16T08:55:49.324Z,-4.70
2022-12-16T08:58:35.973Z,-4.70
2022-12-16T09:01:23.252Z,-4.70
2022-12-16T09:04:11.577Z,-4.70
2022-12-16T09:06:58.897Z,-4.70
2022-12-16T09:09:45.383Z,-4.60
2022-12-16T09:12:32.489Z,-4.50
2022-12-16T09:15:18.973Z,-4.60
2022-12-16T09:18:11.825Z,-4.60
2022-12-16T09:21:00.081Z,-4.60
2022-12-16T09:23:47.124Z,-4.50
2022-12-16T09:26:33.625Z,-4.40
2022-12-16T09:29:20.992Z,-4.50
2022-12-16T09:32:07.416Z,-4.30
2022-12-16T09:34:54.837Z,-4.30
2022-12-16T09:37:42.921Z,-4.60
2022-12-16T09:40:34.513Z,-4.60
2022-12-16T09:43:29.480Z,-4.60
2022-12-16T09:46:27.179Z,-4.50
2022-12-16T09:49:20.640Z,-4.40
2022-12-16T09:52:12.498Z,-4.10
2022-12-16T09:55:06.263Z,-4.10
2022-12-16T09:57:55.564Z,-4.20
2022-12-16T10:00:43.812Z,-4.10
2022-12-16T10:03:38.393Z,-4.20
2022-12-16T10:06:30.791Z,-4.30
2022-12-16T10:09:29.328Z,-4.30
2022-12-16T10:12:25.176Z,-4.20
2022-12-16T10:15:20.061Z,-4.00
2022-12-16T10:18:06.499Z,-4.00
2022-12-16T10:21:03.454Z,-3.80
2022-12-16T10:23:58.021Z,-3.80
2022-12-16T10:26:51.629Z,-3.80
2022-12-16T10:29:58.846Z,-3.90
2022-12-16T10:32:51.196Z,-3.90
2022-12-16T10:35:42.059Z,-4.00
2022-12-16T10:38:33.569Z,-4.00
2022-12-16T10:41:21.335Z,-3.90
2022-12-16T10:44:09.641Z,-3.90
2022-12-16T10:46:57.483Z,-4.00
2022-12-16T10:49:46.474Z,-3.90
2022-12-16T10:52:46.416Z,-3.90
2022-12-16T10:55:45.938Z,-4.00
2022-12-16T10:58:39.179Z,-3.80
2022-12-16T11:01:42.200Z,-3.80
2022-12-16T11:04:51.176Z,-3.60
2022-12-16T11:07:52.887Z,-3.60
2022-12-16T11:10:50.011Z,-3.60
2022-12-16T11:13:42.344Z,-3.70
2022-12-16T11:16:34.641Z,-3.70
2022-12-16T11:19:21.702Z,-3.70
2022-12-16T11:22:09.637Z,-3.70
2022-12-16T11:24:56.893Z,-3.70
2022-12-16T11:27:46.168Z,-3.70
2022-12-16T11:30:40.298Z,-3.70
2022-12-16T11:33:35.296Z,-3.70
2022-12-16T11:36:32.321Z,-3.70
2022-12-16T11:39:21.146Z,-3.70
2022-12-16T11:42:12.045Z,-3.80
2022-12-16T11:45:02.014Z,-3.80
2022-12-16T11:47:56.947Z,-3.70
2022-12-16T11:50:46.267Z,-3.80
2022-12-16T11:53:48.375Z,-3.80
2022-12-16T11:56:40.878Z,-3.80
2022-12-16T11:59:38.157Z,-3.80
2022-12-16T12:02:32.412Z,-3.70
2022-12-16T12:05:19.549Z,-3.70
2022-12-16T12:08:15.516Z,-3.80
2022-12-16T12:11:22.011Z,-3.80
2022-12-16T12:14:23.544Z,-3.80
2022-12-16T12:17:20.101Z,-3.70
2022-12-16T12:20:16.992Z,-3.80
2022-12-16T12:23:06.959Z,-3.80
2022-12-16T12:26:03.707Z,-3.80
2022-12-16T12:28:59.929Z,-3.80
2022-12-16T12:31:58.242Z,-3.80
2022-12-16T12:34:58.030Z,-3.80
2022-12-16T12:37:53.850Z,-3.90
2022-12-16T12:40:57.514Z,-3.80
2022-12-16T12:43:55.139Z,-3.80
2022-12-16T12:46:53.426Z,-3.80
2022-12-16T12:49:47.660Z,-3.70
2022-12-16T12:52:45.941Z,-3.70
2022-12-16T12:55:41.900Z,-3.70
2022-12-16T12:58:31.292Z,-3.70
2022-12-16T13:01:19.841Z,-3.70
2022-12-16T13:04:12.768Z,-3.80
2022-12-16T13:06:59.568Z,-3.80
2022-12-16T13:09:50.338Z,-3.80
2022-12-16T13:12:43.553Z,-3.70
2022-12-16T13:15:38.115Z,-3.80
2022-12-16T13:18:41.990Z,-3.80
2022-12-16T13:22:04.689Z,-3.70
2022-12-16T13:25:12.768Z,-3.70
2022-12-16T13:28:14.372Z,-3.70
2022-12-16T13:31:24.642Z,-3.70
2022-12-16T13:34:14.008Z,-3.70
2022-12-16T13:37:01.944Z,-3.60
2022-12-16T13:39:50.560Z,-3.70
2022-12-16T13:43:13.865Z,-3.60
2022-12-16T13:46:17.583Z,-3.60
2022-12-16T13:49:04.123Z,-3.50
2022-12-16T13:52:26.464Z,-3.50
2022-12-16T13:55:33.135Z,-3.50
2022-12-16T13:58:25.350Z,-3.40
2022-12-16T14:01:24.750Z,-3.50
2022-12-16T14:04:14.331Z,-3.50
2022-12-16T14:07:00.705Z,-3.50
2022-12-16T14:09:54.527Z,-3.40
2022-12-16T14:13:07.247Z,-3.40
2022-12-16T14:16:05.398Z,-3.40
2022-12-16T14:19:03.618Z,-3.40
2022-12-16T14:21:57.808Z,-3.40
2022-12-16T14:24:46.128Z,-3.30
2022-12-16T14:27:36.117Z,-3.30
2022-12-16T14:30:36.628Z,-3.30
2022-12-16T14:33:41.039Z,-3.20
2022-12-16T14:36:48.639Z,-3.20
2022-12-16T14:39:41.588Z,-3.20
2022-12-16T14:42:38.041Z,-3.20
2022-12-16T14:45:40.843Z,-3.20
2022-12-16T14:48:49.924Z,-3.20
2022-12-16T14:51:42.904Z,-3.20
2022-12-16T14:54:40.819Z,-3.10
2022-12-16T14:57:33.588Z,-3.00
2022-12-16T15:00:33.720Z,-3.00
2022-12-16T15:03:25.732Z,-3.00
2022-12-16T15:06:13.136Z,-3.00
2022-12-16T15:09:07.828Z,-2.90
2022-12-16T15:11:56.431Z,-2.90
2022-12-16T15:14:48.507Z,-2.80
2022-12-16T15:17:52.192Z,-2.70
2022-12-16T15:20:42.731Z,-2.70
2022-12-16T15:23:36.121Z,-2.70
2022-12-16T15:26:23.544Z,-2.60
2022-12-16T15:29:09.859Z,-2.60
2022-12-16T15:32:03.278Z,-2.50
2022-12-16T15:34:57.544Z,-2.50
2022-12-16T15:38:00.653Z,-2.50
2022-12-16T15:40:52.910Z,-2.40
2022-12-16T15:43:44.476Z,-2.40
2022-12-16T15:46:39.770Z,-2.40
2022-12-16T15:49:36.593Z,-2.40
2022-12-16T15:52:41.711Z,-2.30
2022-12-16T15:55:47.949Z,-2.20
2022-12-16T15:58:38.890Z,-2.20
2022-12-16T16:01:27.101Z,-2.30
2022-12-16T16:04:16.012Z,-2.20
2022-12-16T16:07:07.344Z,-2.20
2022-12-16T16:09:57.172Z,-2.20
2022-12-16T16:12:44.944Z,-2.20
2022-12-16T16:15:33.793Z,-2.20
2022-12-16T16:18:23.499Z,-2.20
2022-12-16T16:21:10.980Z,-2.10
2022-12-16T16:23:58.020Z,-2.10
2022-12-16T16:26:47.414Z,-2.10
2022-12-16T16:29:34.626Z,-2.10
2022-12-16T16:32:21.403Z,-2.00
2022-12-16T16:35:08.409Z,-2.00
2022-12-16T16:37:55.016Z,-2.00
2022-12-16T16:40:49.563Z,-2.00
2022-12-16T16:43:39.593Z,-1.90
2022-12-16T16:46:48.510Z,-1.80
2022-12-16T16:49:41.010Z,-1.90
2022-12-16T16:52:31.232Z,-1.90
2022-12-16T16:55:17.932Z,-1.90
2022-12-16T16:58:04.884Z,-1.80
2022-12-16T17:00:53.407Z,-1.70
2022-12-16T17:03:41.626Z,-1.70
2022-12-16T17:06:28.643Z,-1.70
2022-12-16T17:09:16.044Z,-1.60
2022-12-16T17:12:04.984Z,-1.60
2022-12-16T17:14:53.052Z,-1.70
2022-12-16T17:17:41.417Z,-1.70
2022-12-16T17:20:34.572Z,-1.70
2022-12-16T17:23:20.985Z,-1.70
2022-12-16T17:26:10.501Z,-1.80
2022-12-16T17:28:57.207Z,-1.80
2022-12-16T17:31:43.939Z,-1.70
2022-12-16T17:34:31.902Z,-1.70
2022-12-16T17:37:18.920Z,-1.70
2022-12-16T17:40:05.301Z,-1.60
2022-12-16T17:42:52.037Z,-1.60
2022-12-16T17:45:41.189Z,-1.70
2022-12-16T17:48:28.741Z,-1.50
2022-12-16T17:51:16.707Z,-1.60
2022-12-16T17:54:10.703Z,-1.60
2022-12-16T17:57:02.657Z,-1.60
2022-12-16T17:59:54.456Z,-1.60
2022-12-16T18:02:46.991Z,-1.50
2022-12-16T18:05:41.118Z,-1.50
2022-12-16T18:08:32.363Z,-1.50
2022-12-16T18:11:19.199Z,-1.50
2022-12-16T18:14:06.380Z,-1.40
2022-12-16T18:16:53.956Z,-1.40
2022-12-16T18:19:40.702Z,-1.40
2022-12-16T18:22:28.127Z,-1.40
2022-12-16T18:25:16.173Z,-1.50
2022-12-16T18:28:03.072Z,-1.50
2022-12-16T18:30:49.811Z,-1.40
2022-12-16T18:33:37.353Z,-1.40
2022-12-16T18:36:24.427Z,-1.40
2022-12-16T18:39:11.106Z,-1.30
2022-12-16T18:42:03.225Z,-1.30
2022-12-16T18:44:50.084Z,-1.30
2022-12-16T18:47:37.037Z,-1.30
2022-12-16T18:50:28.657Z,-1.40
2022-12-16T18:53:18.547Z,-1.40
2022-12-16T18:56:06.038Z,-1.30
2022-12-16T18:58:55.574Z,-1.20
2022-12-16T19:01:42.639Z,-1.20
2022-12-16T19:04:29.172Z,-1.20
2022-12-16T19:07:16.245Z,-1.20
2022-12-16T19:10:02.622Z,-1.20
2022-12-16T19:12:49.916Z,-1.20
2022-12-16T19:15:41.274Z,-1.20
2022-12-16T19:18:30.439Z,-1.20
2022-12-16T19:21:17.000Z,-1.20
2022-12-16T19:24:06.415Z,-1.20
2022-12-16T19:27:01.579Z,-1.20
2022-12-16T19:29:48.668Z,-1.10
2022-12-16T19:32:36.662Z,-1.20
2022-12-16T19:35:23.945Z,-1.10
2022-12-16T19:38:10.272Z,-1.10
2022-12-16T19:40:57.292Z,-1.00
2022-12-16T19:43:44.237Z,-1.10
2022-12-16T19:46:28.001Z,-1.00
2022-12-16T19:49:16.200Z,-1.00
2022-12-16T19:52:03.571Z,-1.00
2022-12-16T19:54:49.937Z,-1.10
2022-12-16T19:57:37.131Z,-1.00
2022-12-16T20:00:25.105Z,-1.10
2022-12-16T20:03:11.994Z,-1.10
2022-12-16T20:06:00.091Z,-1.10
2022-12-16T20:08:46.932Z,-1.10
2022-12-16T20:11:33.434Z,-1.10
2022-12-16T20:14:20.644Z,-1.10
2022-12-16T20:17:07.053Z,-1.10
2022-12-16T20:19:53.759Z,-1.10
2022-12-16T20:22:45.015Z,-1.10
2022-12-16T20:25:31.865Z,-1.10
2022-12-16T20:28:24.635Z,-1.10
2022-12-16T20:31:12.342Z,-1.10
2022-12-16T20:34:02.885Z,-1.10
2022-12-16T20:36:49.790Z,-1.10
2022-12-16T20:39:37.582Z,-1.10
2022-12-16T20:42:24.562Z,-1.20
2022-12-16T20:45:11.210Z,-1.10
2022-12-16T20:47:58.110Z,-1.10
2022-12-16T20:50:44.713Z,-1.20
2022-12-16T20:53:40.693Z,-1.20
2022-12-16T20:56:29.083Z,-1.20
2022-12-16T20:59:16.010Z,-1.10
2022-12-16T21:02:22.587Z,-1.20
2022-12-16T21:05:09.729Z,-1.20
2022-12-16T21:07:56.871Z,-1.20
2022-12-16T21:10:44.415Z,-1.20
2022-12-16T21:13:34.942Z,-1.10
2022-12-16T21:16:24.394Z,-1.20
2022-12-16T21:19:10.515Z,-1.20
2022-12-16T21:21:57.764Z,-1.20
2022-12-16T21:24:44.470Z,-1.30
2022-12-16T21:27:31.420Z,-1.20
2022-12-16T21:30:19.636Z,-1.20
2022-12-16T21:33:08.369Z,-1.20
2022-12-16T21:35:56.069Z,-1.20
2022-12-16T21:38:43.462Z,-1.10
2022-12-16T21:41:29.952Z,-1.10
2022-12-16T21:44:17.341Z,-1.10
2022-12-16T21:47:05.514Z,-1.10
2022-12-16T21:49:56.056Z,-1.10
2022-12-16T21:52:42.599Z,-1.00
2022-12-16T21:55:29.621Z,-1.00
2022-12-16T21:58:16.634Z,-1.00
2022-12-16T22:01:03.569Z,-1.00
2022-12-16T22:03:55.177Z,-1.00
2022-12-16T22:06:48.443Z,-1.00
2022-12-16T22:09:35.898Z,-1.00
2022-12-16T22:12:23.764Z,-1.00
2022-12-16T22:15:10.162Z,-1.00
2022-12-16T22:21:15.431Z,-1.00
2022-12-16T22:24:02.493Z,-0.90
2022-12-16T22:26:48.800Z,-0.90
2022-12-16T22:29:36.010Z,-0.90
2022-12-16T22:32:22.936Z,-0.90
2022-12-16T22:35:15.285Z,-0.90
2022-12-16T22:38:03.578Z,-0.90
2022-12-16T22:40:50.429Z,-0.90
2022-12-16T22:43:36.949Z,-0.80
2022-12-16T22:46:24.207Z,-0.90
2022-12-16T22:49:10.596Z,-0.90
2022-12-16T22:51:57.585Z,-0.90
2022-12-16T22:54:45.518Z,-0.80
2022-12-16T22:57:32.992Z,-0.80
2022-12-16T23:00:19.313Z,-0.80
2022-12-16T23:03:05.435Z,-0.80
2022-12-16T23:05:52.056Z,-0.80
2022-12-16T23:08:39.976Z,-0.80
2022-12-16T23:11:38.730Z,-0.80
2022-12-16T23:14:25.673Z,-0.80
2022-12-16T23:17:12.124Z,-0.80
2022-12-16T23:19:59.089Z,-0.80
2022-12-16T23:22:45.643Z,-0.80
2022-12-16T23:25:32.608Z,-0.80
2022-12-16T23:28:20.559Z,-0.80
2022-12-16T23:31:11.574Z,-0.70
2022-12-16T23:33:58.585Z,-0.70
2022-12-16T23:36:45.929Z,-0.70
2022-12-16T23:39:32.891Z,-0.50
2022-12-16T23:42:20.167Z,-0.60
2022-12-16T23:45:08.653Z,-0.60
2022-12-16T23:47:57.935Z,-0.50
2022-12-16T23:50:44.264Z,-0.60
2022-12-16T23:53:31.308Z,-0.60
2022-12-16T23:56:19.159Z,-0.60
2022-12-16T23:59:06.958Z,-0.60
